sensor_id;sensor_type;location;lat;lon;timestamp;P1;durP1;ratioP1;P2;durP2;ratioP2
13989;SDS011;7069;52.528;13.316;2023-06-19T00:01:37;10.25;;;9.43;;
13989;SDS011;7069;52.528;13.316;2023-06-19T00:04:03;10.40;;;9.60;;
13989;SDS011;7069;52.528;13.316;2023-06-19T00:06:30;10.13;;;9.25;;
13989;SDS011;7069;52.528;13.316;2023-06-19T00:08:56;10.25;;;9.43;;
13989;SDS011;7069;52.528;13.316;2023-06-19T00:11:23;10.45;;;9.55;;
13989;SDS011;7069;52.528;13.316;2023-06-19T00:13:49;10.15;;;9.18;;
13989;SDS011;7069;52.528;13.316;2023-06-19T00:16:17;10.68;;;9.77;;
13989;SDS011;7069;52.528;13.316;2023-06-19T00:18:44;9.35;;;8.55;;
13989;SDS011;7069;52.528;13.316;2023-06-19T00:21:10;9.57;;;8.68;;
13989;SDS011;7069;52.528;13.316;2023-06-19T00:23:37;9.73;;;9.00;;
13989;SDS011;7069;52.528;13.316;2023-06-19T00:26:03;9.90;;;9.07;;
13989;SDS011;7069;52.528;13.316;2023-06-19T00:28:31;10.63;;;9.73;;
13989;SDS011;7069;52.528;13.316;2023-06-19T00:30:58;8.55;;;7.88;;
13989;SDS011;7069;52.528;13.316;2023-06-19T00:33:26;10.52;;;9.63;;
13989;SDS011;7069;52.528;13.316;2023-06-19T00:35:54;10.57;;;9.70;;
13989;SDS011;7069;52.528;13.316;2023-06-19T00:38:20;10.10;;;9.30;;
13989;SDS011;7069;52.528;13.316;2023-06-19T00:40:47;10.05;;;9.25;;
13989;SDS011;7069;52.528;13.316;2023-06-19T00:43:14;9.98;;;9.18;;
13989;SDS011;7069;52.528;13.316;2023-06-19T00:45:41;9.20;;;8.60;;
13989;SDS011;7069;52.528;13.316;2023-06-19T00:48:07;9.48;;;8.77;;
13989;SDS011;7069;52.528;13.316;2023-06-19T00:50:36;10.55;;;9.75;;
13989;SDS011;7069;52.528;13.316;2023-06-19T00:53:03;9.73;;;8.93;;
13989;SDS011;7069;52.528;13.316;2023-06-19T00:55:32;10.77;;;9.98;;
13989;SDS011;7069;52.528;13.316;2023-06-19T00:58:00;9.32;;;8.63;;
13989;SDS011;7069;52.528;13.316;2023-06-19T01:00:26;11.48;;;9.63;;
13989;SDS011;7069;52.528;13.316;2023-06-19T01:02:53;9.93;;;9.10;;
13989;SDS011;7069;52.528;13.316;2023-06-19T01:05:20;10.55;;;9.65;;
13989;SDS011;7069;52.528;13.316;2023-06-19T01:07:50;10.18;;;9.18;;
13989;SDS011;7069;52.528;13.316;2023-06-19T01:10:19;10.02;;;9.32;;
13989;SDS011;7069;52.528;13.316;2023-06-19T01:12:49;10.15;;;9.25;;
13989;SDS011;7069;52.528;13.316;2023-06-19T01:15:18;10.40;;;9.48;;
13989;SDS011;7069;52.528;13.316;2023-06-19T01:17:46;10.43;;;9.52;;
13989;SDS011;7069;52.528;13.316;2023-06-19T01:20:14;10.55;;;9.50;;
13989;SDS011;7069;52.528;13.316;2023-06-19T01:22:42;10.27;;;9.45;;
13989;SDS011;7069;52.528;13.316;2023-06-19T01:25:10;10.73;;;9.82;;
13989;SDS011;7069;52.528;13.316;2023-06-19T01:27:39;9.90;;;9.15;;
13989;SDS011;7069;52.528;13.316;2023-06-19T01:30:06;11.18;;;10.27;;
13989;SDS011;7069;52.528;13.316;2023-06-19T01:32:44;10.70;;;9.70;;
13989;SDS011;7069;52.528;13.316;2023-06-19T01:35:13;11.18;;;10.20;;
13989;SDS011;7069;52.528;13.316;2023-06-19T01:37:43;11.70;;;10.73;;
13989;SDS011;7069;52.528;13.316;2023-06-19T01:40:11;11.32;;;10.43;;
13989;SDS011;7069;52.528;13.316;2023-06-19T01:42:39;12.32;;;11.32;;
13989;SDS011;7069;52.528;13.316;2023-06-19T01:45:06;11.80;;;10.80;;
13989;SDS011;7069;52.528;13.316;2023-06-19T01:47:33;10.88;;;10.02;;
13989;SDS011;7069;52.528;13.316;2023-06-19T01:50:00;10.38;;;9.52;;
13989;SDS011;7069;52.528;13.316;2023-06-19T01:52:27;10.90;;;10.00;;
13989;SDS011;7069;52.528;13.316;2023-06-19T01:54:55;11.68;;;10.77;;
13989;SDS011;7069;52.528;13.316;2023-06-19T01:57:22;13.68;;;12.57;;
13989;SDS011;7069;52.528;13.316;2023-06-19T01:59:48;12.23;;;11.13;;
13989;SDS011;7069;52.528;13.316;2023-06-19T02:02:15;12.13;;;11.10;;
13989;SDS011;7069;52.528;13.316;2023-06-19T02:04:42;10.85;;;10.05;;
13989;SDS011;7069;52.528;13.316;2023-06-19T02:07:08;11.45;;;10.45;;
13989;SDS011;7069;52.528;13.316;2023-06-19T02:09:35;12.73;;;11.68;;
13989;SDS011;7069;52.528;13.316;2023-06-19T02:12:04;11.80;;;10.80;;
13989;SDS011;7069;52.528;13.316;2023-06-19T02:14:31;11.30;;;10.38;;
13989;SDS011;7069;52.528;13.316;2023-06-19T02:16:57;10.30;;;9.45;;
13989;SDS011;7069;52.528;13.316;2023-06-19T02:19:24;12.00;;;11.10;;
13989;SDS011;7069;52.528;13.316;2023-06-19T02:21:54;12.00;;;11.00;;
13989;SDS011;7069;52.528;13.316;2023-06-19T02:24:20;11.02;;;10.10;;
13989;SDS011;7069;52.528;13.316;2023-06-19T02:26:47;12.38;;;11.30;;
13989;SDS011;7069;52.528;13.316;2023-06-19T02:29:15;10.55;;;9.75;;
13989;SDS011;7069;52.528;13.316;2023-06-19T02:31:43;11.35;;;10.45;;
13989;SDS011;7069;52.528;13.316;2023-06-19T02:34:10;11.73;;;10.82;;
13989;SDS011;7069;52.528;13.316;2023-06-19T02:36:37;12.98;;;11.88;;
13989;SDS011;7069;52.528;13.316;2023-06-19T02:39:03;11.93;;;10.95;;
13989;SDS011;7069;52.528;13.316;2023-06-19T02:41:30;12.45;;;11.45;;
13989;SDS011;7069;52.528;13.316;2023-06-19T02:43:57;13.02;;;11.93;;
13989;SDS011;7069;52.528;13.316;2023-06-19T02:46:25;11.63;;;10.73;;
13989;SDS011;7069;52.528;13.316;2023-06-19T02:48:52;12.82;;;11.80;;
13989;SDS011;7069;52.528;13.316;2023-06-19T02:51:18;12.57;;;11.68;;
13989;SDS011;7069;52.528;13.316;2023-06-19T02:53:45;12.80;;;11.70;;
13989;SDS011;7069;52.528;13.316;2023-06-19T02:56:12;12.30;;;10.75;;
13989;SDS011;7069;52.528;13.316;2023-06-19T02:58:39;12.77;;;11.70;;
13989;SDS011;7069;52.528;13.316;2023-06-19T03:01:06;14.25;;;13.15;;
13989;SDS011;7069;52.528;13.316;2023-06-19T03:03:35;14.93;;;13.63;;
13989;SDS011;7069;52.528;13.316;2023-06-19T03:06:03;14.23;;;12.95;;
13989;SDS011;7069;52.528;13.316;2023-06-19T03:08:30;13.60;;;12.40;;
13989;SDS011;7069;52.528;13.316;2023-06-19T03:10:59;12.68;;;11.68;;
13989;SDS011;7069;52.528;13.316;2023-06-19T03:13:26;13.77;;;12.48;;
13989;SDS011;7069;52.528;13.316;2023-06-19T03:15:54;13.10;;;12.00;;
13989;SDS011;7069;52.528;13.316;2023-06-19T03:18:20;13.38;;;12.25;;
13989;SDS011;7069;52.528;13.316;2023-06-19T03:20:49;11.73;;;10.82;;
13989;SDS011;7069;52.528;13.316;2023-06-19T03:23:16;11.90;;;11.00;;
13989;SDS011;7069;52.528;13.316;2023-06-19T03:25:43;12.88;;;11.90;;
13989;SDS011;7069;52.528;13.316;2023-06-19T03:28:10;12.43;;;11.43;;
13989;SDS011;7069;52.528;13.316;2023-06-19T03:30:36;12.60;;;11.50;;
13989;SDS011;7069;52.528;13.316;2023-06-19T03:33:03;13.90;;;12.73;;
13989;SDS011;7069;52.528;13.316;2023-06-19T03:35:30;13.23;;;12.05;;
13989;SDS011;7069;52.528;13.316;2023-06-19T03:37:58;12.40;;;11.40;;
13989;SDS011;7069;52.528;13.316;2023-06-19T03:40:25;12.45;;;11.45;;
13989;SDS011;7069;52.528;13.316;2023-06-19T03:42:52;12.25;;;11.25;;
13989;SDS011;7069;52.528;13.316;2023-06-19T03:45:19;13.30;;;12.25;;
13989;SDS011;7069;52.528;13.316;2023-06-19T03:47:45;12.07;;;11.10;;
13989;SDS011;7069;52.528;13.316;2023-06-19T03:50:12;10.85;;;9.95;;
13989;SDS011;7069;52.528;13.316;2023-06-19T03:52:39;11.13;;;10.18;;
13989;SDS011;7069;52.528;13.316;2023-06-19T03:55:07;10.73;;;9.93;;
13989;SDS011;7069;52.528;13.316;2023-06-19T03:57:34;11.68;;;10.68;;
13989;SDS011;7069;52.528;13.316;2023-06-19T04:00:00;12.63;;;11.63;;
13989;SDS011;7069;52.528;13.316;2023-06-19T04:02:28;13.60;;;12.50;;
13989;SDS011;7069;52.528;13.316;2023-06-19T04:04:55;12.57;;;11.57;;
13989;SDS011;7069;52.528;13.316;2023-06-19T04:07:21;14.38;;;12.57;;
13989;SDS011;7069;52.528;13.316;2023-06-19T04:09:48;12.15;;;11.15;;
13989;SDS011;7069;52.528;13.316;2023-06-19T04:12:16;13.00;;;11.80;;
13989;SDS011;7069;52.528;13.316;2023-06-19T04:14:42;13.98;;;12.70;;
13989;SDS011;7069;52.528;13.316;2023-06-19T04:17:09;11.82;;;10.90;;
13989;SDS011;7069;52.528;13.316;2023-06-19T04:19:36;13.65;;;12.35;;
13989;SDS011;7069;52.528;13.316;2023-06-19T04:22:02;14.20;;;13.02;;
13989;SDS011;7069;52.528;13.316;2023-06-19T04:24:29;12.23;;;11.23;;
13989;SDS011;7069;52.528;13.316;2023-06-19T04:26:56;12.60;;;11.45;;
13989;SDS011;7069;52.528;13.316;2023-06-19T04:29:24;13.18;;;12.10;;
13989;SDS011;7069;52.528;13.316;2023-06-19T04:31:50;12.65;;;11.63;;
13989;SDS011;7069;52.528;13.316;2023-06-19T04:34:17;13.60;;;12.40;;
13989;SDS011;7069;52.528;13.316;2023-06-19T04:36:46;12.27;;;11.18;;
13989;SDS011;7069;52.528;13.316;2023-06-19T04:39:12;12.25;;;11.25;;
13989;SDS011;7069;52.528;13.316;2023-06-19T04:41:40;12.35;;;11.15;;
13989;SDS011;7069;52.528;13.316;2023-06-19T04:44:08;12.07;;;11.07;;
13989;SDS011;7069;52.528;13.316;2023-06-19T04:46:38;12.23;;;11.13;;
13989;SDS011;7069;52.528;13.316;2023-06-19T04:49:04;11.80;;;10.70;;
13989;SDS011;7069;52.528;13.316;2023-06-19T04:51:31;11.63;;;10.63;;
13989;SDS011;7069;52.528;13.316;2023-06-19T04:53:58;11.95;;;10.85;;
13989;SDS011;7069;52.528;13.316;2023-06-19T04:56:25;13.65;;;12.52;;
13989;SDS011;7069;52.528;13.316;2023-06-19T04:58:51;12.93;;;11.90;;
13989;SDS011;7069;52.528;13.316;2023-06-19T05:01:21;11.43;;;10.52;;
13989;SDS011;7069;52.528;13.316;2023-06-19T05:03:54;12.20;;;11.10;;
13989;SDS011;7069;52.528;13.316;2023-06-19T05:06:21;12.75;;;11.75;;
13989;SDS011;7069;52.528;13.316;2023-06-19T05:08:48;12.75;;;11.60;;
13989;SDS011;7069;52.528;13.316;2023-06-19T05:11:15;11.95;;;10.95;;
13989;SDS011;7069;52.528;13.316;2023-06-19T05:13:41;11.75;;;10.85;;
13989;SDS011;7069;52.528;13.316;2023-06-19T05:16:08;12.75;;;11.70;;
13989;SDS011;7069;52.528;13.316;2023-06-19T05:18:34;13.35;;;12.27;;
13989;SDS011;7069;52.528;13.316;2023-06-19T05:21:02;12.43;;;11.43;;
13989;SDS011;7069;52.528;13.316;2023-06-19T05:23:29;13.05;;;11.85;;
13989;SDS011;7069;52.528;13.316;2023-06-19T05:25:56;13.57;;;12.38;;
13989;SDS011;7069;52.528;13.316;2023-06-19T05:28:22;13.45;;;12.35;;
13989;SDS011;7069;52.528;13.316;2023-06-19T05:30:49;11.75;;;10.85;;
13989;SDS011;7069;52.528;13.316;2023-06-19T05:33:16;11.15;;;10.25;;
13989;SDS011;7069;52.528;13.316;2023-06-19T05:35:43;12.35;;;11.35;;
13989;SDS011;7069;52.528;13.316;2023-06-19T05:38:17;13.27;;;12.07;;
13989;SDS011;7069;52.528;13.316;2023-06-19T05:40:44;14.05;;;12.85;;
13989;SDS011;7069;52.528;13.316;2023-06-19T05:43:11;13.15;;;11.90;;
13989;SDS011;7069;52.528;13.316;2023-06-19T05:45:37;12.80;;;11.75;;
13989;SDS011;7069;52.528;13.316;2023-06-19T05:48:04;13.60;;;12.40;;
13989;SDS011;7069;52.528;13.316;2023-06-19T05:50:30;14.30;;;12.98;;
13989;SDS011;7069;52.528;13.316;2023-06-19T05:52:57;14.85;;;13.55;;
13989;SDS011;7069;52.528;13.316;2023-06-19T05:55:25;13.00;;;11.90;;
13989;SDS011;7069;52.528;13.316;2023-06-19T05:57:52;12.57;;;11.45;;
13989;SDS011;7069;52.528;13.316;2023-06-19T06:00:19;13.05;;;11.85;;
13989;SDS011;7069;52.528;13.316;2023-06-19T06:02:45;12.63;;;11.52;;
13989;SDS011;7069;52.528;13.316;2023-06-19T06:05:12;14.32;;;13.15;;
13989;SDS011;7069;52.528;13.316;2023-06-19T06:07:39;15.43;;;14.20;;
13989;SDS011;7069;52.528;13.316;2023-06-19T06:10:06;13.98;;;12.88;;
13989;SDS011;7069;52.528;13.316;2023-06-19T06:12:34;14.52;;;12.90;;
13989;SDS011;7069;52.528;13.316;2023-06-19T06:15:01;13.82;;;12.73;;
13989;SDS011;7069;52.528;13.316;2023-06-19T06:17:27;41.45;;;19.25;;
13989;SDS011;7069;52.528;13.316;2023-06-19T06:19:54;15.40;;;13.00;;
13989;SDS011;7069;52.528;13.316;2023-06-19T06:22:21;14.05;;;12.55;;
13989;SDS011;7069;52.528;13.316;2023-06-19T06:24:47;12.55;;;11.45;;
13989;SDS011;7069;52.528;13.316;2023-06-19T06:27:14;13.50;;;11.85;;
13989;SDS011;7069;52.528;13.316;2023-06-19T06:29:42;13.13;;;12.00;;
13989;SDS011;7069;52.528;13.316;2023-06-19T06:32:09;13.75;;;12.60;;
13989;SDS011;7069;52.528;13.316;2023-06-19T06:34:35;13.30;;;12.00;;
13989;SDS011;7069;52.528;13.316;2023-06-19T06:37:02;13.95;;;12.52;;
13989;SDS011;7069;52.528;13.316;2023-06-19T06:39:29;13.98;;;12.77;;
13989;SDS011;7069;52.528;13.316;2023-06-19T06:41:56;13.15;;;12.15;;
13989;SDS011;7069;52.528;13.316;2023-06-19T06:44:22;13.55;;;12.25;;
13989;SDS011;7069;52.528;13.316;2023-06-19T06:46:50;14.23;;;12.93;;
13989;SDS011;7069;52.528;13.316;2023-06-19T06:49:17;14.45;;;13.25;;
13989;SDS011;7069;52.528;13.316;2023-06-19T06:51:44;13.43;;;12.20;;
13989;SDS011;7069;52.528;13.316;2023-06-19T06:54:10;14.50;;;13.10;;
13989;SDS011;7069;52.528;13.316;2023-06-19T06:56:37;14.55;;;11.98;;
13989;SDS011;7069;52.528;13.316;2023-06-19T06:59:04;17.70;;;13.13;;
13989;SDS011;7069;52.528;13.316;2023-06-19T07:01:31;13.18;;;12.07;;
13989;SDS011;7069;52.528;13.316;2023-06-19T07:03:58;14.50;;;13.30;;
13989;SDS011;7069;52.528;13.316;2023-06-19T07:06:25;15.18;;;13.75;;
13989;SDS011;7069;52.528;13.316;2023-06-19T07:08:52;14.52;;;12.88;;
13989;SDS011;7069;52.528;13.316;2023-06-19T07:11:19;15.10;;;13.35;;
13989;SDS011;7069;52.528;13.316;2023-06-19T07:13:45;14.13;;;12.73;;
13989;SDS011;7069;52.528;13.316;2023-06-19T07:16:12;13.55;;;12.35;;
13989;SDS011;7069;52.528;13.316;2023-06-19T07:18:39;14.55;;;13.35;;
13989;SDS011;7069;52.528;13.316;2023-06-19T07:21:08;13.93;;;12.73;;
13989;SDS011;7069;52.528;13.316;2023-06-19T07:23:37;14.20;;;12.90;;
13989;SDS011;7069;52.528;13.316;2023-06-19T07:26:05;15.48;;;13.98;;
13989;SDS011;7069;52.528;13.316;2023-06-19T07:28:31;14.65;;;13.35;;
13989;SDS011;7069;52.528;13.316;2023-06-19T07:30:58;12.02;;;11.02;;
13989;SDS011;7069;52.528;13.316;2023-06-19T07:33:24;13.25;;;12.15;;
13989;SDS011;7069;52.528;13.316;2023-06-19T07:35:51;14.13;;;12.95;;
13989;SDS011;7069;52.528;13.316;2023-06-19T07:38:19;13.35;;;12.25;;
13989;SDS011;7069;52.528;13.316;2023-06-19T07:40:46;12.23;;;11.23;;
13989;SDS011;7069;52.528;13.316;2023-06-19T07:43:12;16.00;;;14.57;;
13989;SDS011;7069;52.528;13.316;2023-06-19T07:45:39;15.00;;;13.23;;
13989;SDS011;7069;52.528;13.316;2023-06-19T07:48:05;13.98;;;12.63;;
13989;SDS011;7069;52.528;13.316;2023-06-19T07:50:32;13.55;;;12.35;;
13989;SDS011;7069;52.528;13.316;2023-06-19T07:52:59;12.50;;;11.55;;
13989;SDS011;7069;52.528;13.316;2023-06-19T07:55:27;12.85;;;11.68;;
13989;SDS011;7069;52.528;13.316;2023-06-19T07:57:54;13.05;;;12.00;;
13989;SDS011;7069;52.528;13.316;2023-06-19T08:00:22;13.25;;;12.05;;
13989;SDS011;7069;52.528;13.316;2023-06-19T08:02:48;13.80;;;12.60;;
13989;SDS011;7069;52.528;13.316;2023-06-19T08:05:15;13.13;;;12.02;;
13989;SDS011;7069;52.528;13.316;2023-06-19T08:07:42;12.55;;;11.43;;
13989;SDS011;7069;52.528;13.316;2023-06-19T08:10:09;13.48;;;12.18;;
13989;SDS011;7069;52.528;13.316;2023-06-19T08:12:37;15.23;;;13.68;;
13989;SDS011;7069;52.528;13.316;2023-06-19T08:15:04;15.00;;;13.68;;
13989;SDS011;7069;52.528;13.316;2023-06-19T08:17:30;13.18;;;12.18;;
13989;SDS011;7069;52.528;13.316;2023-06-19T08:19:57;13.13;;;11.90;;
13989;SDS011;7069;52.528;13.316;2023-06-19T08:22:24;12.77;;;11.60;;
13989;SDS011;7069;52.528;13.316;2023-06-19T08:24:50;12.40;;;11.10;;
13989;SDS011;7069;52.528;13.316;2023-06-19T08:27:17;13.18;;;11.85;;
13989;SDS011;7069;52.528;13.316;2023-06-19T08:29:45;11.90;;;10.82;;
13989;SDS011;7069;52.528;13.316;2023-06-19T08:32:11;12.68;;;11.55;;
13989;SDS011;7069;52.528;13.316;2023-06-19T08:34:38;12.80;;;11.70;;
13989;SDS011;7069;52.528;13.316;2023-06-19T08:37:05;12.70;;;11.60;;
13989;SDS011;7069;52.528;13.316;2023-06-19T08:39:32;13.98;;;12.57;;
13989;SDS011;7069;52.528;13.316;2023-06-19T08:41:58;13.90;;;12.68;;
13989;SDS011;7069;52.528;13.316;2023-06-19T08:44:25;12.10;;;11.02;;
13989;SDS011;7069;52.528;13.316;2023-06-19T08:46:53;12.27;;;11.27;;
13989;SDS011;7069;52.528;13.316;2023-06-19T08:49:20;14.32;;;12.38;;
13989;SDS011;7069;52.528;13.316;2023-06-19T08:51:47;12.20;;;11.30;;
13989;SDS011;7069;52.528;13.316;2023-06-19T08:54:13;11.98;;;10.88;;
13989;SDS011;7069;52.528;13.316;2023-06-19T08:56:40;13.00;;;11.80;;
13989;SDS011;7069;52.528;13.316;2023-06-19T08:59:07;13.02;;;11.82;;
13989;SDS011;7069;52.528;13.316;2023-06-19T09:01:34;11.43;;;10.43;;
13989;SDS011;7069;52.528;13.316;2023-06-19T09:04:02;12.52;;;11.02;;
13989;SDS011;7069;52.528;13.316;2023-06-19T09:06:33;13.23;;;12.02;;
13989;SDS011;7069;52.528;13.316;2023-06-19T09:09:04;11.77;;;10.68;;
13989;SDS011;7069;52.528;13.316;2023-06-19T09:11:31;12.32;;;11.13;;
13989;SDS011;7069;52.528;13.316;2023-06-19T09:13:58;13.00;;;11.80;;
13989;SDS011;7069;52.528;13.316;2023-06-19T09:16:26;12.38;;;11.18;;
13989;SDS011;7069;52.528;13.316;2023-06-19T09:19:03;12.38;;;11.10;;
13989;SDS011;7069;52.528;13.316;2023-06-19T09:21:29;12.68;;;11.63;;
13989;SDS011;7069;52.528;13.316;2023-06-19T09:24:01;13.05;;;11.93;;
13989;SDS011;7069;52.528;13.316;2023-06-19T09:26:28;14.43;;;13.05;;
13989;SDS011;7069;52.528;13.316;2023-06-19T09:28:54;13.35;;;12.05;;
13989;SDS011;7069;52.528;13.316;2023-06-19T09:31:30;13.32;;;12.15;;
13989;SDS011;7069;52.528;13.316;2023-06-19T09:33:57;13.93;;;12.73;;
13989;SDS011;7069;52.528;13.316;2023-06-19T09:36:25;13.75;;;12.55;;
13989;SDS011;7069;52.528;13.316;2023-06-19T09:38:52;13.30;;;11.98;;
13989;SDS011;7069;52.528;13.316;2023-06-19T09:41:20;12.85;;;11.65;;
13989;SDS011;7069;52.528;13.316;2023-06-19T09:43:47;13.35;;;12.20;;
13989;SDS011;7069;52.528;13.316;2023-06-19T09:46:14;13.77;;;12.32;;
13989;SDS011;7069;52.528;13.316;2023-06-19T09:48:43;13.63;;;12.52;;
13989;SDS011;7069;52.528;13.316;2023-06-19T09:51:12;14.07;;;12.82;;
13989;SDS011;7069;52.528;13.316;2023-06-19T09:53:44;13.40;;;12.30;;
13989;SDS011;7069;52.528;13.316;2023-06-19T09:56:11;12.95;;;11.70;;
13989;SDS011;7069;52.528;13.316;2023-06-19T09:58:37;14.05;;;12.93;;
13989;SDS011;7069;52.528;13.316;2023-06-19T10:01:04;15.18;;;13.68;;
13989;SDS011;7069;52.528;13.316;2023-06-19T10:03:32;12.65;;;11.40;;
13989;SDS011;7069;52.528;13.316;2023-06-19T10:05:59;14.00;;;12.80;;
13989;SDS011;7069;52.528;13.316;2023-06-19T10:08:27;13.13;;;11.93;;
13989;SDS011;7069;52.528;13.316;2023-06-19T10:10:55;14.57;;;13.25;;
13989;SDS011;7069;52.528;13.316;2023-06-19T10:13:30;13.88;;;12.73;;
13989;SDS011;7069;52.528;13.316;2023-06-19T10:15:56;13.57;;;12.27;;
13989;SDS011;7069;52.528;13.316;2023-06-19T10:18:23;14.23;;;12.95;;
13989;SDS011;7069;52.528;13.316;2023-06-19T10:20:50;14.98;;;12.13;;
13989;SDS011;7069;52.528;13.316;2023-06-19T10:23:17;15.25;;;13.73;;
13989;SDS011;7069;52.528;13.316;2023-06-19T10:25:44;16.02;;;12.90;;
13989;SDS011;7069;52.528;13.316;2023-06-19T10:28:18;13.05;;;11.98;;
13989;SDS011;7069;52.528;13.316;2023-06-19T10:30:51;21.42;;;14.65;;
13989;SDS011;7069;52.528;13.316;2023-06-19T10:33:18;17.83;;;14.25;;
13989;SDS011;7069;52.528;13.316;2023-06-19T10:35:44;14.00;;;12.65;;
13989;SDS011;7069;52.528;13.316;2023-06-19T10:38:14;14.60;;;13.30;;
13989;SDS011;7069;52.528;13.316;2023-06-19T10:40:40;14.15;;;12.82;;
13989;SDS011;7069;52.528;13.316;2023-06-19T10:43:07;13.05;;;11.90;;
13989;SDS011;7069;52.528;13.316;2023-06-19T10:45:34;15.18;;;13.80;;
13989;SDS011;7069;52.528;13.316;2023-06-19T10:48:01;15.25;;;13.88;;
13989;SDS011;7069;52.528;13.316;2023-06-19T10:50:28;15.70;;;14.10;;
13989;SDS011;7069;52.528;13.316;2023-06-19T10:52:55;17.58;;;14.52;;
13989;SDS011;7069;52.528;13.316;2023-06-19T10:55:24;15.73;;;14.23;;
13989;SDS011;7069;52.528;13.316;2023-06-19T10:57:50;16.10;;;14.52;;
13989;SDS011;7069;52.528;13.316;2023-06-19T11:00:26;15.63;;;14.23;;
13989;SDS011;7069;52.528;13.316;2023-06-19T11:02:54;16.45;;;15.00;;
13989;SDS011;7069;52.528;13.316;2023-06-19T11:05:21;15.57;;;14.18;;
13989;SDS011;7069;52.528;13.316;2023-06-19T11:07:51;13.98;;;12.77;;
13989;SDS011;7069;52.528;13.316;2023-06-19T11:10:19;16.02;;;14.73;;
13989;SDS011;7069;52.528;13.316;2023-06-19T11:12:45;15.07;;;13.68;;
13989;SDS011;7069;52.528;13.316;2023-06-19T11:15:12;15.30;;;13.68;;
13989;SDS011;7069;52.528;13.316;2023-06-19T11:17:38;15.07;;;13.77;;
13989;SDS011;7069;52.528;13.316;2023-06-19T11:20:10;14.57;;;13.27;;
13989;SDS011;7069;52.528;13.316;2023-06-19T11:22:37;13.98;;;12.80;;
13989;SDS011;7069;52.528;13.316;2023-06-19T11:25:06;15.93;;;14.43;;
13989;SDS011;7069;52.528;13.316;2023-06-19T11:27:32;15.73;;;14.10;;
13989;SDS011;7069;52.528;13.316;2023-06-19T11:30:00;14.60;;;13.38;;
13989;SDS011;7069;52.528;13.316;2023-06-19T11:32:32;15.38;;;14.07;;
13989;SDS011;7069;52.528;13.316;2023-06-19T11:35:04;13.27;;;12.15;;
13989;SDS011;7069;52.528;13.316;2023-06-19T11:37:33;13.70;;;12.57;;
13989;SDS011;7069;52.528;13.316;2023-06-19T11:40:00;18.95;;;14.32;;
13989;SDS011;7069;52.528;13.316;2023-06-19T11:42:29;13.65;;;12.63;;
13989;SDS011;7069;52.528;13.316;2023-06-19T11:44:59;13.88;;;12.63;;
13989;SDS011;7069;52.528;13.316;2023-06-19T11:47:27;13.73;;;12.52;;
13989;SDS011;7069;52.528;13.316;2023-06-19T11:49:55;13.48;;;12.27;;
13989;SDS011;7069;52.528;13.316;2023-06-19T11:52:22;15.07;;;13.68;;
13989;SDS011;7069;52.528;13.316;2023-06-19T11:54:49;12.73;;;11.70;;
13989;SDS011;7069;52.528;13.316;2023-06-19T11:57:16;13.52;;;12.20;;
13989;SDS011;7069;52.528;13.316;2023-06-19T11:59:42;13.32;;;12.23;;
13989;SDS011;7069;52.528;13.316;2023-06-19T12:02:09;13.20;;;12.10;;
13989;SDS011;7069;52.528;13.316;2023-06-19T12:04:35;13.45;;;11.77;;
13989;SDS011;7069;52.528;13.316;2023-06-19T12:07:02;12.35;;;11.25;;
13989;SDS011;7069;52.528;13.316;2023-06-19T12:09:29;9.80;;;9.00;;
13989;SDS011;7069;52.528;13.316;2023-06-19T12:11:58;11.40;;;10.38;;
13989;SDS011;7069;52.528;13.316;2023-06-19T12:14:25;11.02;;;10.15;;
13989;SDS011;7069;52.528;13.316;2023-06-19T12:16:52;11.35;;;10.45;;
13989;SDS011;7069;52.528;13.316;2023-06-19T12:19:18;11.52;;;9.95;;
13989;SDS011;7069;52.528;13.316;2023-06-19T12:21:45;10.68;;;9.77;;
13989;SDS011;7069;52.528;13.316;2023-06-19T12:24:11;11.35;;;9.75;;
13989;SDS011;7069;52.528;13.316;2023-06-19T12:26:37;9.75;;;8.85;;
13989;SDS011;7069;52.528;13.316;2023-06-19T12:29:06;11.57;;;10.18;;
13989;SDS011;7069;52.528;13.316;2023-06-19T12:31:33;10.95;;;10.05;;
13989;SDS011;7069;52.528;13.316;2023-06-19T12:33:59;13.10;;;11.57;;
13989;SDS011;7069;52.528;13.316;2023-06-19T12:36:26;11.40;;;10.20;;
13989;SDS011;7069;52.528;13.316;2023-06-19T12:38:54;10.80;;;9.80;;
13989;SDS011;7069;52.528;13.316;2023-06-19T12:41:20;10.45;;;9.55;;
13989;SDS011;7069;52.528;13.316;2023-06-19T12:43:47;10.10;;;9.30;;
13989;SDS011;7069;52.528;13.316;2023-06-19T12:46:15;9.32;;;8.52;;
13989;SDS011;7069;52.528;13.316;2023-06-19T12:48:41;11.05;;;10.02;;
13989;SDS011;7069;52.528;13.316;2023-06-19T12:51:08;10.23;;;9.43;;
13989;SDS011;7069;52.528;13.316;2023-06-19T12:53:34;9.50;;;8.80;;
13989;SDS011;7069;52.528;13.316;2023-06-19T12:56:01;10.55;;;9.65;;
13989;SDS011;7069;52.528;13.316;2023-06-19T12:58:27;9.85;;;9.05;;
13989;SDS011;7069;52.528;13.316;2023-06-19T13:00:54;11.57;;;10.55;;
13989;SDS011;7069;52.528;13.316;2023-06-19T13:03:21;11.30;;;10.20;;
13989;SDS011;7069;52.528;13.316;2023-06-19T13:05:48;10.23;;;9.18;;
13989;SDS011;7069;52.528;13.316;2023-06-19T13:08:15;11.23;;;10.32;;
13989;SDS011;7069;52.528;13.316;2023-06-19T13:10:41;12.10;;;10.95;;
13989;SDS011;7069;52.528;13.316;2023-06-19T13:13:07;11.07;;;10.23;;
13989;SDS011;7069;52.528;13.316;2023-06-19T13:15:35;12.27;;;11.27;;
13989;SDS011;7069;52.528;13.316;2023-06-19T13:18:01;11.63;;;10.63;;
13989;SDS011;7069;52.528;13.316;2023-06-19T13:20:29;10.80;;;9.85;;
13989;SDS011;7069;52.528;13.316;2023-06-19T13:22:56;11.20;;;10.20;;
13989;SDS011;7069;52.528;13.316;2023-06-19T13:25:23;11.50;;;10.40;;
13989;SDS011;7069;52.528;13.316;2023-06-19T13:27:49;10.98;;;9.88;;
13989;SDS011;7069;52.528;13.316;2023-06-19T13:30:16;10.77;;;9.88;;
13989;SDS011;7069;52.528;13.316;2023-06-19T13:32:42;13.07;;;11.63;;
13989;SDS011;7069;52.528;13.316;2023-06-19T13:35:09;11.95;;;9.70;;
13989;SDS011;7069;52.528;13.316;2023-06-19T13:37:37;11.82;;;10.82;;
13989;SDS011;7069;52.528;13.316;2023-06-19T13:40:05;12.52;;;11.52;;
13989;SDS011;7069;52.528;13.316;2023-06-19T13:42:32;11.90;;;10.77;;
13989;SDS011;7069;52.528;13.316;2023-06-19T13:45:00;12.13;;;11.02;;
13989;SDS011;7069;52.528;13.316;2023-06-19T13:47:26;12.98;;;11.77;;
13989;SDS011;7069;52.528;13.316;2023-06-19T13:49:53;12.50;;;11.40;;
13989;SDS011;7069;52.528;13.316;2023-06-19T13:52:20;12.50;;;11.45;;
13989;SDS011;7069;52.528;13.316;2023-06-19T13:54:47;13.30;;;12.00;;
13989;SDS011;7069;52.528;13.316;2023-06-19T13:57:14;14.93;;;11.52;;
13989;SDS011;7069;52.528;13.316;2023-06-19T13:59:40;12.82;;;11.73;;
13989;SDS011;7069;52.528;13.316;2023-06-19T14:02:08;12.10;;;11.20;;
13989;SDS011;7069;52.528;13.316;2023-06-19T14:04:35;13.48;;;12.32;;
13989;SDS011;7069;52.528;13.316;2023-06-19T14:07:01;13.10;;;12.10;;
13989;SDS011;7069;52.528;13.316;2023-06-19T14:09:28;13.48;;;12.38;;
13989;SDS011;7069;52.528;13.316;2023-06-19T14:11:56;12.88;;;11.77;;
13989;SDS011;7069;52.528;13.316;2023-06-19T14:14:23;12.35;;;11.23;;
13989;SDS011;7069;52.528;13.316;2023-06-19T14:16:50;13.13;;;11.82;;
13989;SDS011;7069;52.528;13.316;2023-06-19T14:19:16;11.68;;;10.70;;
13989;SDS011;7069;52.528;13.316;2023-06-19T14:21:42;11.82;;;10.88;;
13989;SDS011;7069;52.528;13.316;2023-06-19T14:24:09;12.35;;;11.30;;